Rome State, OR

11:41 PM MDT on September 17, 2014 (GMT -0600)
Rome State | Change Station
CLOSE
Current Station
Airport
Location: Rome,
Elevation: 4049 ft
Nearby Weather Stations

Elev 4049 ft 42.59 °N, 117.86 °W | Updated 49 minutes ago

Mostly Cloudy
Mostly Cloudy
73 °F
Feels Like 73 °F
N
10
Wind Variable Wind from South
Gusts 8 mph

Today
High -- | Low -- °F
--% Chance of Precip.
Yesterday
High -- | Low -- °F
Precip. -- in
7:33 AM 7:57 PM
Waning Crescent, 30% visible
Pressure 29.66 in
Visibility -9999.0 miles
Clouds
Dew Point 31 °F
Humidity 21%
Rainfall 0.00 in
Snow Depth 0 in , 1 in , 0 in
UV Not available.
Pollen 5.20 out of 12
Air Quality Not available.
Flu Activity Not available.
METAR KREO 180452Z AUTO 17009KT 23/M01 A2979 RMK AO1 SLP042 T02281006 $

More Conditions Fewer Conditions

Pressure 29.66 in
Visibility -9999.0 miles
Clouds
Dew Point 31 °F
Humidity 21%
Rainfall 0.00 in
Snow Depth 0 in , 1 in , 0 in
UV Not available.
Pollen 5.20 out of 12
Air Quality Not available.
Flu Activity Not available.
METAR KREO 180452Z AUTO 17009KT 23/M01 A2979 RMK AO1 SLP042 T02281006 $

More Conditions Fewer Conditions

10-Day Weather Forecast

Almanac

Astronomy

Sep. 17, 2014 Rise Set
Actual Time 7:33 AM MDT 7:57 PM MDT
Civil Twilight 7:05 AM MDT 8:25 PM MDT
Nautical Twilight 6:32 AM MDT 8:58 PM MDT
Astronomical Twilight 5:57 AM MDT 9:33 PM MDT
Moon 1:32 AM MDT (9/17) 4:15 PM MDT (9/17)
Length of Visible Light 13h 20m
Length of Day
12h 23m
Tomorrow will be 2m 51s shorter.
Waning Crescent, 30% of the Moon is Illuminated
Sep 18
Waning Crescent
Sep 24
New
Oct 1
First Quarter
Oct 8
Full
Oct 15
Last Quarter

Yesterday's Extremes

State Highs State Lows

Community

WunderPhotos

Upload Photos

1,754,292 photos uploaded!

Nearby

Snow Depth

Station Depth Elevation
Salt Creek Falls 0 in 4000 ft
Clear Lake 1 in 3500 ft
Clackamas Lake 0 in 3400 ft
Holland Meadows 1 in 4900 ft
Arbuckle Mountain 0 in 5400 ft

Earthquake Activity

City Distance Mag. Time & Date
Lakeview, Oregon 101 miles 3.0 11:14 AM MDT
2014-09-17
Lakeview, Oregon 101 miles 2.6 2:34 PM MDT
2014-09-16
Lakeview, Oregon 101 miles 2.5 5:10 AM MDT
2014-09-16
Lakeview, Oregon 101 miles 3.0 5:23 PM MDT
2014-09-15
Minimum magnitude displayed is 2.5.

Coastal Water Temperatures

Place Temperature
No Stations Reporting

Nearby Weather Stations